sensor_id;sensor_type;location;lat;lon;timestamp;P1;durP1;ratioP1;P2;durP2;ratioP2
53925;SDS011;39836;52.754;6.866;2023-04-01T00:01:03;15.60;;;10.15;;
53925;SDS011;39836;52.754;6.866;2023-04-01T00:03:29;11.05;;;8.35;;
53925;SDS011;39836;52.754;6.866;2023-04-01T00:05:56;16.63;;;9.65;;
53925;SDS011;39836;52.754;6.866;2023-04-01T00:08:24;17.80;;;8.98;;
53925;SDS011;39836;52.754;6.866;2023-04-01T00:10:52;17.58;;;8.88;;
53925;SDS011;39836;52.754;6.866;2023-04-01T00:13:18;13.90;;;8.38;;
53925;SDS011;39836;52.754;6.866;2023-04-01T00:15:45;13.13;;;9.13;;
53925;SDS011;39836;52.754;6.866;2023-04-01T00:18:11;15.35;;;10.10;;
53925;SDS011;39836;52.754;6.866;2023-04-01T00:20:38;13.05;;;8.57;;
53925;SDS011;39836;52.754;6.866;2023-04-01T00:23:04;14.20;;;9.93;;
53925;SDS011;39836;52.754;6.866;2023-04-01T00:25:30;14.48;;;8.73;;
53925;SDS011;39836;52.754;6.866;2023-04-01T00:27:56;16.38;;;10.05;;
53925;SDS011;39836;52.754;6.866;2023-04-01T00:30:22;14.48;;;9.10;;
53925;SDS011;39836;52.754;6.866;2023-04-01T00:32:51;13.88;;;7.93;;
53925;SDS011;39836;52.754;6.866;2023-04-01T00:35:17;13.45;;;9.50;;
53925;SDS011;39836;52.754;6.866;2023-04-01T00:37:43;14.40;;;8.88;;
53925;SDS011;39836;52.754;6.866;2023-04-01T00:40:11;15.93;;;9.73;;
53925;SDS011;39836;52.754;6.866;2023-04-01T00:42:49;16.40;;;9.55;;
53925;SDS011;39836;52.754;6.866;2023-04-01T00:50:48;15.30;;;9.00;;
53925;SDS011;39836;52.754;6.866;2023-04-01T00:53:17;17.33;;;9.32;;
53925;SDS011;39836;52.754;6.866;2023-04-01T00:55:47;17.73;;;10.57;;
53925;SDS011;39836;52.754;6.866;2023-04-01T00:58:19;14.80;;;9.95;;
53925;SDS011;39836;52.754;6.866;2023-04-01T01:00:49;18.85;;;10.63;;
53925;SDS011;39836;52.754;6.866;2023-04-01T01:03:17;18.85;;;10.13;;
53925;SDS011;39836;52.754;6.866;2023-04-01T01:08:22;16.02;;;9.05;;
53925;SDS011;39836;52.754;6.866;2023-04-01T01:11:02;16.60;;;9.10;;
53925;SDS011;39836;52.754;6.866;2023-04-01T01:13:40;13.27;;;8.48;;
53925;SDS011;39836;52.754;6.866;2023-04-01T01:16:29;22.23;;;8.80;;
53925;SDS011;39836;52.754;6.866;2023-04-01T01:27:15;14.18;;;8.20;;
53925;SDS011;39836;52.754;6.866;2023-04-01T01:35:48;16.48;;;9.50;;
53925;SDS011;39836;52.754;6.866;2023-04-01T01:38:17;13.32;;;9.57;;
53925;SDS011;39836;52.754;6.866;2023-04-01T01:40:47;17.75;;;10.10;;
53925;SDS011;39836;52.754;6.866;2023-04-01T01:43:23;17.85;;;10.63;;
53925;SDS011;39836;52.754;6.866;2023-04-01T01:45:52;18.25;;;9.48;;
53925;SDS011;39836;52.754;6.866;2023-04-01T01:48:21;22.00;;;10.35;;
53925;SDS011;39836;52.754;6.866;2023-04-01T01:50:48;17.98;;;10.70;;
53925;SDS011;39836;52.754;6.866;2023-04-01T01:53:16;26.00;;;10.32;;
53925;SDS011;39836;52.754;6.866;2023-04-01T01:55:43;20.30;;;10.00;;
53925;SDS011;39836;52.754;6.866;2023-04-01T01:58:16;19.50;;;10.77;;
53925;SDS011;39836;52.754;6.866;2023-04-01T02:00:50;22.17;;;11.18;;
53925;SDS011;39836;52.754;6.866;2023-04-01T02:03:23;16.35;;;10.30;;
53925;SDS011;39836;52.754;6.866;2023-04-01T02:05:52;24.40;;;11.88;;
53925;SDS011;39836;52.754;6.866;2023-04-01T02:08:22;21.70;;;11.82;;
53925;SDS011;39836;52.754;6.866;2023-04-01T02:11:04;23.08;;;11.48;;
53925;SDS011;39836;52.754;6.866;2023-04-01T02:13:35;20.92;;;11.02;;
53925;SDS011;39836;52.754;6.866;2023-04-01T02:16:11;21.33;;;12.00;;
53925;SDS011;39836;52.754;6.866;2023-04-01T02:18:43;17.67;;;10.95;;
53925;SDS011;39836;52.754;6.866;2023-04-01T02:21:10;21.17;;;10.60;;
53925;SDS011;39836;52.754;6.866;2023-04-01T02:23:38;24.20;;;11.85;;
53925;SDS011;39836;52.754;6.866;2023-04-01T02:26:06;25.35;;;11.52;;
53925;SDS011;39836;52.754;6.866;2023-04-01T02:28:33;28.67;;;11.63;;
53925;SDS011;39836;52.754;6.866;2023-04-01T02:31:01;23.63;;;11.80;;
53925;SDS011;39836;52.754;6.866;2023-04-01T02:33:28;22.98;;;11.85;;
53925;SDS011;39836;52.754;6.866;2023-04-01T02:35:55;24.10;;;12.30;;
53925;SDS011;39836;52.754;6.866;2023-04-01T02:38:22;23.45;;;12.00;;
53925;SDS011;39836;52.754;6.866;2023-04-01T02:40:50;29.35;;;13.05;;
53925;SDS011;39836;52.754;6.866;2023-04-01T02:43:20;27.27;;;12.35;;
53925;SDS011;39836;52.754;6.866;2023-04-01T02:45:46;24.23;;;11.85;;
53925;SDS011;39836;52.754;6.866;2023-04-01T02:48:12;24.00;;;12.00;;
53925;SDS011;39836;52.754;6.866;2023-04-01T02:50:39;28.15;;;13.23;;
53925;SDS011;39836;52.754;6.866;2023-04-01T02:53:05;22.90;;;11.45;;
53925;SDS011;39836;52.754;6.866;2023-04-01T02:55:31;24.70;;;12.07;;
53925;SDS011;39836;52.754;6.866;2023-04-01T02:57:58;28.85;;;13.52;;
53925;SDS011;39836;52.754;6.866;2023-04-01T03:00:24;26.60;;;12.00;;
53925;SDS011;39836;52.754;6.866;2023-04-01T03:02:51;25.63;;;12.57;;
53925;SDS011;39836;52.754;6.866;2023-04-01T03:05:17;26.67;;;13.00;;
53925;SDS011;39836;52.754;6.866;2023-04-01T03:07:43;27.15;;;12.57;;
53925;SDS011;39836;52.754;6.866;2023-04-01T03:10:09;25.83;;;12.73;;
53925;SDS011;39836;52.754;6.866;2023-04-01T03:12:35;24.65;;;12.00;;
53925;SDS011;39836;52.754;6.866;2023-04-01T03:15:00;27.33;;;12.48;;
53925;SDS011;39836;52.754;6.866;2023-04-01T03:17:26;26.48;;;12.45;;
53925;SDS011;39836;52.754;6.866;2023-04-01T03:19:52;21.02;;;11.32;;
53925;SDS011;39836;52.754;6.866;2023-04-01T03:22:18;22.27;;;11.48;;
53925;SDS011;39836;52.754;6.866;2023-04-01T03:24:46;24.92;;;11.75;;
53925;SDS011;39836;52.754;6.866;2023-04-01T03:27:15;23.85;;;12.13;;
53925;SDS011;39836;52.754;6.866;2023-04-01T03:29:40;20.90;;;11.15;;
53925;SDS011;39836;52.754;6.866;2023-04-01T03:32:06;24.00;;;12.48;;
53925;SDS011;39836;52.754;6.866;2023-04-01T03:34:32;23.05;;;11.02;;
53925;SDS011;39836;52.754;6.866;2023-04-01T03:36:58;26.60;;;11.90;;
53925;SDS011;39836;52.754;6.866;2023-04-01T03:39:24;25.63;;;12.00;;
53925;SDS011;39836;52.754;6.866;2023-04-01T03:41:50;23.83;;;10.80;;
53925;SDS011;39836;52.754;6.866;2023-04-01T03:44:16;22.65;;;11.25;;
53925;SDS011;39836;52.754;6.866;2023-04-01T03:46:42;22.55;;;10.75;;
53925;SDS011;39836;52.754;6.866;2023-04-01T03:49:08;24.33;;;11.13;;
53925;SDS011;39836;52.754;6.866;2023-04-01T03:51:40;20.50;;;10.52;;
53925;SDS011;39836;52.754;6.866;2023-04-01T03:54:07;20.02;;;10.02;;
53925;SDS011;39836;52.754;6.866;2023-04-01T03:56:33;22.10;;;10.70;;
53925;SDS011;39836;52.754;6.866;2023-04-01T03:59:01;22.42;;;10.32;;
53925;SDS011;39836;52.754;6.866;2023-04-01T04:01:28;23.88;;;9.98;;
53925;SDS011;39836;52.754;6.866;2023-04-01T04:03:54;23.65;;;10.25;;
53925;SDS011;39836;52.754;6.866;2023-04-01T04:06:21;23.83;;;10.75;;
53925;SDS011;39836;52.754;6.866;2023-04-01T04:08:48;18.92;;;9.27;;
53925;SDS011;39836;52.754;6.866;2023-04-01T04:11:14;25.10;;;10.02;;
53925;SDS011;39836;52.754;6.866;2023-04-01T04:13:40;21.48;;;9.02;;
53925;SDS011;39836;52.754;6.866;2023-04-01T04:16:06;21.70;;;9.38;;
53925;SDS011;39836;52.754;6.866;2023-04-01T04:18:33;18.42;;;9.43;;
53925;SDS011;39836;52.754;6.866;2023-04-01T04:20:59;20.23;;;9.23;;
53925;SDS011;39836;52.754;6.866;2023-04-01T04:23:25;17.15;;;8.65;;
53925;SDS011;39836;52.754;6.866;2023-04-01T04:25:57;16.98;;;8.95;;
53925;SDS011;39836;52.754;6.866;2023-04-01T04:28:25;18.40;;;8.60;;
53925;SDS011;39836;52.754;6.866;2023-04-01T04:30:51;17.55;;;8.65;;
53925;SDS011;39836;52.754;6.866;2023-04-01T04:33:17;18.08;;;8.73;;
53925;SDS011;39836;52.754;6.866;2023-04-01T04:35:43;18.70;;;8.82;;
53925;SDS011;39836;52.754;6.866;2023-04-01T04:38:09;20.55;;;9.30;;
53925;SDS011;39836;52.754;6.866;2023-04-01T04:40:38;24.33;;;9.63;;
53925;SDS011;39836;52.754;6.866;2023-04-01T04:43:05;20.48;;;9.10;;
53925;SDS011;39836;52.754;6.866;2023-04-01T04:45:31;19.75;;;9.57;;
53925;SDS011;39836;52.754;6.866;2023-04-01T04:47:57;18.25;;;8.57;;
53925;SDS011;39836;52.754;6.866;2023-04-01T04:50:23;20.58;;;9.00;;
53925;SDS011;39836;52.754;6.866;2023-04-01T04:52:50;15.90;;;8.93;;
53925;SDS011;39836;52.754;6.866;2023-04-01T04:55:16;21.27;;;9.10;;
53925;SDS011;39836;52.754;6.866;2023-04-01T04:57:42;25.73;;;10.32;;
53925;SDS011;39836;52.754;6.866;2023-04-01T05:00:08;20.52;;;9.30;;
53925;SDS011;39836;52.754;6.866;2023-04-01T05:02:35;24.33;;;10.52;;
53925;SDS011;39836;52.754;6.866;2023-04-01T05:05:01;26.63;;;10.90;;
53925;SDS011;39836;52.754;6.866;2023-04-01T05:07:27;25.67;;;11.82;;
53925;SDS011;39836;52.754;6.866;2023-04-01T05:09:52;29.42;;;10.68;;
53925;SDS011;39836;52.754;6.866;2023-04-01T05:12:18;28.75;;;11.82;;
53925;SDS011;39836;52.754;6.866;2023-04-01T05:14:44;26.85;;;11.98;;
53925;SDS011;39836;52.754;6.866;2023-04-01T05:17:10;28.35;;;12.57;;
53925;SDS011;39836;52.754;6.866;2023-04-01T05:19:37;28.88;;;12.50;;
53925;SDS011;39836;52.754;6.866;2023-04-01T05:22:03;42.67;;;13.80;;
53925;SDS011;39836;52.754;6.866;2023-04-01T05:24:29;35.53;;;14.25;;
53925;SDS011;39836;52.754;6.866;2023-04-01T05:26:55;33.05;;;14.25;;
53925;SDS011;39836;52.754;6.866;2023-04-01T05:29:22;44.13;;;15.27;;
53925;SDS011;39836;52.754;6.866;2023-04-01T05:31:48;40.75;;;16.85;;
53925;SDS011;39836;52.754;6.866;2023-04-01T05:34:14;37.63;;;16.50;;
53925;SDS011;39836;52.754;6.866;2023-04-01T05:36:40;43.42;;;16.95;;
53925;SDS011;39836;52.754;6.866;2023-04-01T05:39:07;55.58;;;18.08;;
53925;SDS011;39836;52.754;6.866;2023-04-01T05:41:36;46.03;;;19.40;;
53925;SDS011;39836;52.754;6.866;2023-04-01T05:44:03;49.58;;;18.40;;
53925;SDS011;39836;52.754;6.866;2023-04-01T05:46:29;53.35;;;19.33;;
53925;SDS011;39836;52.754;6.866;2023-04-01T05:48:56;55.08;;;21.40;;
53925;SDS011;39836;52.754;6.866;2023-04-01T05:51:21;57.55;;;20.85;;
53925;SDS011;39836;52.754;6.866;2023-04-01T05:53:47;56.60;;;20.05;;
53925;SDS011;39836;52.754;6.866;2023-04-01T05:56:13;53.63;;;20.63;;
53925;SDS011;39836;52.754;6.866;2023-04-01T05:58:39;60.22;;;20.85;;
53925;SDS011;39836;52.754;6.866;2023-04-01T06:01:06;66.97;;;22.13;;
53925;SDS011;39836;52.754;6.866;2023-04-01T06:03:33;50.55;;;19.95;;
53925;SDS011;39836;52.754;6.866;2023-04-01T06:05:59;59.92;;;21.77;;
53925;SDS011;39836;52.754;6.866;2023-04-01T06:08:26;58.40;;;22.25;;
53925;SDS011;39836;52.754;6.866;2023-04-01T06:13:58;61.70;;;21.40;;
53925;SDS011;39836;52.754;6.866;2023-04-01T06:19:40;56.97;;;20.08;;
53925;SDS011;39836;52.754;6.866;2023-04-01T06:28:02;53.28;;;20.27;;
53925;SDS011;39836;52.754;6.866;2023-04-01T06:30:53;67.78;;;21.83;;
53925;SDS011;39836;52.754;6.866;2023-04-01T06:34:08;53.90;;;19.90;;
53925;SDS011;39836;52.754;6.866;2023-04-01T06:42:04;56.72;;;20.77;;
53925;SDS011;39836;52.754;6.866;2023-04-01T06:44:49;53.53;;;19.85;;
53925;SDS011;39836;52.754;6.866;2023-04-01T06:47:45;58.13;;;20.63;;
53925;SDS011;39836;52.754;6.866;2023-04-01T06:55:42;57.10;;;19.38;;
53925;SDS011;39836;52.754;6.866;2023-04-01T07:01:42;59.28;;;21.08;;
53925;SDS011;39836;52.754;6.866;2023-04-01T07:03:58;61.80;;;21.85;;
53925;SDS011;39836;52.754;6.866;2023-04-01T07:06:35;56.72;;;21.35;;
53925;SDS011;39836;52.754;6.866;2023-04-01T07:09:26;59.72;;;20.65;;
53925;SDS011;39836;52.754;6.866;2023-04-01T07:12:07;51.40;;;18.60;;
53925;SDS011;39836;52.754;6.866;2023-04-01T07:14:42;52.60;;;18.48;;
53925;SDS011;39836;52.754;6.866;2023-04-01T07:17:20;46.40;;;18.08;;
53925;SDS011;39836;52.754;6.866;2023-04-01T07:20:05;49.30;;;18.02;;
53925;SDS011;39836;52.754;6.866;2023-04-01T07:22:49;49.78;;;17.83;;
53925;SDS011;39836;52.754;6.866;2023-04-01T07:28:10;46.17;;;17.77;;
53925;SDS011;39836;52.754;6.866;2023-04-01T07:30:51;47.67;;;17.43;;
53925;SDS011;39836;52.754;6.866;2023-04-01T07:33:43;43.90;;;16.95;;
53925;SDS011;39836;52.754;6.866;2023-04-01T07:36:21;47.05;;;18.80;;
53925;SDS011;39836;52.754;6.866;2023-04-01T07:47:32;46.58;;;18.27;;
53925;SDS011;39836;52.754;6.866;2023-04-01T07:50:29;48.75;;;18.45;;
53925;SDS011;39836;52.754;6.866;2023-04-01T07:59:01;41.63;;;18.20;;
53925;SDS011;39836;52.754;6.866;2023-04-01T17:22:30;7.20;;;6.43;;
53925;SDS011;39836;52.754;6.866;2023-04-01T17:35:27;7.68;;;6.53;;
53925;SDS011;39836;52.754;6.866;2023-04-01T17:45:55;9.95;;;6.97;;
53925;SDS011;39836;52.754;6.866;2023-04-01T17:48:45;7.40;;;6.65;;
53925;SDS011;39836;52.754;6.866;2023-04-01T18:19:18;9.52;;;8.52;;
53925;SDS011;39836;52.754;6.866;2023-04-01T18:21:55;8.93;;;7.95;;
53925;SDS011;39836;52.754;6.866;2023-04-01T18:27:24;11.40;;;8.38;;
53925;SDS011;39836;52.754;6.866;2023-04-01T18:32:58;10.20;;;9.10;;
53925;SDS011;39836;52.754;6.866;2023-04-01T18:38:16;9.98;;;8.35;;
53925;SDS011;39836;52.754;6.866;2023-04-01T18:41:14;10.82;;;8.27;;
53925;SDS011;39836;52.754;6.866;2023-04-01T18:46:22;9.68;;;7.70;;
53925;SDS011;39836;52.754;6.866;2023-04-01T18:57:47;11.27;;;9.98;;
53925;SDS011;39836;52.754;6.866;2023-04-01T19:00:26;13.18;;;11.10;;
53925;SDS011;39836;52.754;6.866;2023-04-01T19:05:34;11.43;;;9.85;;
53925;SDS011;39836;52.754;6.866;2023-04-01T19:13:41;12.50;;;9.43;;
53925;SDS011;39836;52.754;6.866;2023-04-01T19:16:36;14.25;;;11.57;;
53925;SDS011;39836;52.754;6.866;2023-04-01T19:19:21;12.43;;;9.18;;
53925;SDS011;39836;52.754;6.866;2023-04-01T19:21:57;13.90;;;11.25;;
53925;SDS011;39836;52.754;6.866;2023-04-01T19:32:45;18.60;;;12.68;;
53925;SDS011;39836;52.754;6.866;2023-04-01T19:35:31;15.52;;;11.80;;
53925;SDS011;39836;52.754;6.866;2023-04-01T19:40:53;12.20;;;9.80;;
53925;SDS011;39836;52.754;6.866;2023-04-01T19:52:14;16.85;;;10.77;;
53925;SDS011;39836;52.754;6.866;2023-04-01T19:57:54;13.13;;;10.77;;
53925;SDS011;39836;52.754;6.866;2023-04-01T20:00:46;14.98;;;12.15;;
53925;SDS011;39836;52.754;6.866;2023-04-01T20:03:34;14.40;;;11.93;;
53925;SDS011;39836;52.754;6.866;2023-04-01T20:14:43;14.68;;;10.15;;
53925;SDS011;39836;52.754;6.866;2023-04-01T20:17:15;12.55;;;10.00;;
53925;SDS011;39836;52.754;6.866;2023-04-01T20:19:51;13.63;;;9.45;;
53925;SDS011;39836;52.754;6.866;2023-04-01T20:24:57;13.38;;;10.18;;
53925;SDS011;39836;52.754;6.866;2023-04-01T20:27:47;11.70;;;8.75;;
53925;SDS011;39836;52.754;6.866;2023-04-01T20:35:44;14.10;;;10.07;;
53925;SDS011;39836;52.754;6.866;2023-04-01T20:43:58;12.48;;;8.90;;
53925;SDS011;39836;52.754;6.866;2023-04-01T20:46:56;15.13;;;10.87;;
53925;SDS011;39836;52.754;6.866;2023-04-01T20:52:26;11.98;;;9.10;;
53925;SDS011;39836;52.754;6.866;2023-04-01T21:00:41;13.48;;;9.55;;
53925;SDS011;39836;52.754;6.866;2023-04-01T21:17:28;17.40;;;12.43;;
53925;SDS011;39836;52.754;6.866;2023-04-01T21:25:55;18.58;;;11.73;;
53925;SDS011;39836;52.754;6.866;2023-04-01T21:31:33;15.23;;;11.15;;
53925;SDS011;39836;52.754;6.866;2023-04-01T21:34:37;20.60;;;13.07;;
53925;SDS011;39836;52.754;6.866;2023-04-01T21:43:35;14.10;;;11.10;;
53925;SDS011;39836;52.754;6.866;2023-04-01T21:48:58;20.73;;;10.68;;
53925;SDS011;39836;52.754;6.866;2023-04-01T22:08:30;17.45;;;12.18;;
53925;SDS011;39836;52.754;6.866;2023-04-01T22:13:38;17.98;;;11.32;;
53925;SDS011;39836;52.754;6.866;2023-04-01T22:19:00;14.27;;;9.77;;
53925;SDS011;39836;52.754;6.866;2023-04-01T22:21:45;21.67;;;10.68;;
53925;SDS011;39836;52.754;6.866;2023-04-01T22:32:49;16.02;;;10.00;;
53925;SDS011;39836;52.754;6.866;2023-04-01T22:40:29;16.15;;;10.35;;
53925;SDS011;39836;52.754;6.866;2023-04-01T22:43:00;13.93;;;9.88;;
53925;SDS011;39836;52.754;6.866;2023-04-01T22:51:11;16.17;;;9.93;;
53925;SDS011;39836;52.754;6.866;2023-04-01T22:56:26;15.23;;;9.90;;
53925;SDS011;39836;52.754;6.866;2023-04-01T22:59:01;18.02;;;12.02;;
53925;SDS011;39836;52.754;6.866;2023-04-01T23:01:36;20.55;;;10.40;;
53925;SDS011;39836;52.754;6.866;2023-04-01T23:04:08;13.63;;;9.85;;
53925;SDS011;39836;52.754;6.866;2023-04-01T23:06:46;15.13;;;9.93;;
53925;SDS011;39836;52.754;6.866;2023-04-01T23:09:29;15.88;;;9.38;;
53925;SDS011;39836;52.754;6.866;2023-04-01T23:12:10;13.35;;;9.43;;
53925;SDS011;39836;52.754;6.866;2023-04-01T23:14:41;13.95;;;9.00;;
53925;SDS011;39836;52.754;6.866;2023-04-01T23:25:45;13.93;;;9.50;;
53925;SDS011;39836;52.754;6.866;2023-04-01T23:35:50;12.68;;;9.15;;
53925;SDS011;39836;52.754;6.866;2023-04-01T23:38:19;14.73;;;8.60;;
53925;SDS011;39836;52.754;6.866;2023-04-01T23:40:50;16.60;;;8.88;;
53925;SDS011;39836;52.754;6.866;2023-04-01T23:45:50;15.65;;;9.43;;
53925;SDS011;39836;52.754;6.866;2023-04-01T23:48:17;15.35;;;8.40;;
53925;SDS011;39836;52.754;6.866;2023-04-01T23:50:48;13.55;;;7.63;;
53925;SDS011;39836;52.754;6.866;2023-04-01T23:53:24;13.35;;;9.05;;
53925;SDS011;39836;52.754;6.866;2023-04-01T23:55:51;16.92;;;9.38;;
53925;SDS011;39836;52.754;6.866;2023-04-01T23:58:26;14.32;;;9.13;;
